トロント/ピアソン の空港の天気 - METARとTAF

トロント・ピアソン国際空港 ( CYYZ / YYZ ) - カナダ オンタリオ州トロント
飛行場実況気象(Metar)
観測時間04/10 01:00 EDT (04/10 05:00 UTC)
風向・風速西北西 9m/s
視程10km以上
天気現象
少しの雲 雲底高度 670m
全天の8割程度の雲 雲底高度 1550m
気温2℃
湿度75%
気圧996.1hPa
METARCYYZ 100500Z 29018KT 15SM FEW022 BKN051 02/M02 A2940 RMK CF1SC6 SLP961
過去の天気等 Google飛行場航空写真 Wunderground天気予報

過去48時間のMETAR

飛行場予報(TAF)
発表時間: 4/10 01:38 EDT (4/10 05:38 UTC)
予報対象時間: 10日2時 EDT ~ 11日8時 EDT
風向・風速西北西 9m/s 瞬間風速 14m/s
視程10km以上
全天の4割程度の雲 雲底高度 1220m
10日2時 EDT ~ 10日10時 EDT に一時的に
視程8050m
天気現象弱いしゅう雪雨
全天の8割程度の雲 雲底高度 610m
10日10時 EDT から
風向・風速西北西 9m/s 瞬間風速 15m/s
視程10km以上
全天の4割程度の雲 雲底高度 910m
全天の8割程度の雲 雲底高度 1520m
10日19時 EDT から
風向・風速西北西 6m/s 瞬間風速 13m/s
視程10km以上
少しの雲 雲底高度 1220m
10日23時 EDT から
風向・風速西北西 5m/s
視程10km以上
なし
11日6時 EDT から
風向・風速西 3m/s
視程10km以上
少しの雲 雲底高度 3660m
TAF CYYZ 100538Z 1006/1112 29018G28KT P6SM SCT040
TEMPO 1006/1014 5SM -SHSNRA BKN020
FM101400 29018G30KT P6SM SCT030 BKN050
FM102300 30012G25KT P6SM FEW040
FM110300 29010KT P6SM SKC
FM111000 26006KT P6SM FEW120 RMK NXT FCST BY 100900Z